sensor_id;sensor_type;location;lat;lon;timestamp;pressure;altitude;pressure_sealevel;temperature;humidity
13058;BME280;6595;49.578;11.012;2022-08-21T00:00:26;984.347;;;24.14;89.0
13058;BME280;6595;49.578;11.012;2022-08-21T00:02:26;984.310;;;24.03;89.0
13058;BME280;6595;49.578;11.012;2022-08-21T00:04:24;984.322;;;24.05;89.0
13058;BME280;6595;49.578;11.012;2022-08-21T00:06:24;984.284;;;24.14;89.0
13058;BME280;6595;49.578;11.012;2022-08-21T00:08:24;984.274;;;23.98;89.0
13058;BME280;6595;49.578;11.012;2022-08-21T00:10:24;984.260;;;23.96;89.0
13058;BME280;6595;49.578;11.012;2022-08-21T00:12:24;984.231;;;23.89;89.0
13058;BME280;6595;49.578;11.012;2022-08-21T00:14:24;984.261;;;23.88;89.0
13058;BME280;6595;49.578;11.012;2022-08-21T00:16:24;984.260;;;23.93;89.0
13058;BME280;6595;49.578;11.012;2022-08-21T00:18:24;984.273;;;23.87;89.0
13058;BME280;6595;49.578;11.012;2022-08-21T00:20:25;984.264;;;23.59;89.0
13058;BME280;6595;49.578;11.012;2022-08-21T00:22:24;984.255;;;23.35;88.9
13058;BME280;6595;49.578;11.012;2022-08-21T00:24:24;984.258;;;23.26;88.9
13058;BME280;6595;49.578;11.012;2022-08-21T00:26:24;984.282;;;23.20;88.9
13058;BME280;6595;49.578;11.012;2022-08-21T00:28:24;984.269;;;23.33;88.9
13058;BME280;6595;49.578;11.012;2022-08-21T00:30:25;984.305;;;23.59;89.0
13058;BME280;6595;49.578;11.012;2022-08-21T00:32:25;984.350;;;23.57;88.9
13058;BME280;6595;49.578;11.012;2022-08-21T00:34:24;984.400;;;23.30;88.9
13058;BME280;6595;49.578;11.012;2022-08-21T00:36:23;984.365;;;23.53;88.9
13058;BME280;6595;49.578;11.012;2022-08-21T00:38:24;984.272;;;23.65;89.0
13058;BME280;6595;49.578;11.012;2022-08-21T00:40:26;984.264;;;23.54;88.9
13058;BME280;6595;49.578;11.012;2022-08-21T00:42:23;984.279;;;23.78;89.0
13058;BME280;6595;49.578;11.012;2022-08-21T00:44:24;984.216;;;23.53;88.9
13058;BME280;6595;49.578;11.012;2022-08-21T00:46:24;984.212;;;23.52;88.9
13058;BME280;6595;49.578;11.012;2022-08-21T00:48:25;984.159;;;23.59;88.9
13058;BME280;6595;49.578;11.012;2022-08-21T00:50:26;984.157;;;23.57;88.9
13058;BME280;6595;49.578;11.012;2022-08-21T00:52:26;984.155;;;23.61;89.0
13058;BME280;6595;49.578;11.012;2022-08-21T00:54:26;984.160;;;23.78;89.0
13058;BME280;6595;49.578;11.012;2022-08-21T00:56:24;984.124;;;23.80;89.0
13058;BME280;6595;49.578;11.012;2022-08-21T00:58:26;984.117;;;23.73;89.0
13058;BME280;6595;49.578;11.012;2022-08-21T01:00:29;984.052;;;23.66;89.0
13058;BME280;6595;49.578;11.012;2022-08-21T01:02:25;984.037;;;23.61;89.0
13058;BME280;6595;49.578;11.012;2022-08-21T01:04:24;984.084;;;23.43;88.9
13058;BME280;6595;49.578;11.012;2022-08-21T01:06:24;984.091;;;23.43;88.9
13058;BME280;6595;49.578;11.012;2022-08-21T01:08:24;984.080;;;23.23;88.9
13058;BME280;6595;49.578;11.012;2022-08-21T01:10:24;984.098;;;23.23;88.9
13058;BME280;6595;49.578;11.012;2022-08-21T01:12:24;984.093;;;23.40;88.9
13058;BME280;6595;49.578;11.012;2022-08-21T01:14:24;984.086;;;23.41;88.9
13058;BME280;6595;49.578;11.012;2022-08-21T01:16:24;984.040;;;23.51;88.9
13058;BME280;6595;49.578;11.012;2022-08-21T01:18:24;984.056;;;23.60;89.0
13058;BME280;6595;49.578;11.012;2022-08-21T01:20:24;984.001;;;23.49;88.9
13058;BME280;6595;49.578;11.012;2022-08-21T01:22:23;984.066;;;23.84;89.0
13058;BME280;6595;49.578;11.012;2022-08-21T01:24:23;984.068;;;23.78;89.0
13058;BME280;6595;49.578;11.012;2022-08-21T01:26:26;984.057;;;23.32;88.9
13058;BME280;6595;49.578;11.012;2022-08-21T01:28:24;984.094;;;23.17;88.9
13058;BME280;6595;49.578;11.012;2022-08-21T01:30:26;984.109;;;23.35;88.9
13058;BME280;6595;49.578;11.012;2022-08-21T01:32:24;984.173;;;23.60;89.0
13058;BME280;6595;49.578;11.012;2022-08-21T01:34:24;984.177;;;23.77;89.0
13058;BME280;6595;49.578;11.012;2022-08-21T01:36:24;984.112;;;23.62;89.0
13058;BME280;6595;49.578;11.012;2022-08-21T01:38:25;984.129;;;23.69;89.0
13058;BME280;6595;49.578;11.012;2022-08-21T01:40:24;984.122;;;23.69;89.0
13058;BME280;6595;49.578;11.012;2022-08-21T01:42:24;984.137;;;23.55;88.9
13058;BME280;6595;49.578;11.012;2022-08-21T01:44:25;984.183;;;23.68;89.0
13058;BME280;6595;49.578;11.012;2022-08-21T01:46:24;984.225;;;23.90;89.0
13058;BME280;6595;49.578;11.012;2022-08-21T01:48:23;984.150;;;23.77;89.0
13058;BME280;6595;49.578;11.012;2022-08-21T01:50:23;984.111;;;23.68;89.0
13058;BME280;6595;49.578;11.012;2022-08-21T01:52:24;984.103;;;23.54;88.9
13058;BME280;6595;49.578;11.012;2022-08-21T01:54:23;984.089;;;23.57;88.9
13058;BME280;6595;49.578;11.012;2022-08-21T01:56:24;984.115;;;23.78;89.0
13058;BME280;6595;49.578;11.012;2022-08-21T01:58:24;984.082;;;23.54;88.9
13058;BME280;6595;49.578;11.012;2022-08-21T02:00:24;984.046;;;23.63;89.0
13058;BME280;6595;49.578;11.012;2022-08-21T02:02:24;984.050;;;23.64;89.0
13058;BME280;6595;49.578;11.012;2022-08-21T02:04:25;984.011;;;23.68;89.0
13058;BME280;6595;49.578;11.012;2022-08-21T02:06:23;983.984;;;23.73;89.0
13058;BME280;6595;49.578;11.012;2022-08-21T02:08:24;984.042;;;23.90;89.0
13058;BME280;6595;49.578;11.012;2022-08-21T02:10:28;984.014;;;23.70;89.0
13058;BME280;6595;49.578;11.012;2022-08-21T02:12:23;983.975;;;23.13;88.9
13058;BME280;6595;49.578;11.012;2022-08-21T02:14:23;983.971;;;23.50;88.9
13058;BME280;6595;49.578;11.012;2022-08-21T02:16:24;983.961;;;23.66;89.0
13058;BME280;6595;49.578;11.012;2022-08-21T02:18:24;983.927;;;23.63;89.0
13058;BME280;6595;49.578;11.012;2022-08-21T02:20:27;983.941;;;23.69;89.0
13058;BME280;6595;49.578;11.012;2022-08-21T02:22:23;983.923;;;23.74;89.0
13058;BME280;6595;49.578;11.012;2022-08-21T02:24:24;983.949;;;23.78;89.0
13058;BME280;6595;49.578;11.012;2022-08-21T02:26:24;983.963;;;23.75;89.0
13058;BME280;6595;49.578;11.012;2022-08-21T02:28:25;983.984;;;23.56;88.9
13058;BME280;6595;49.578;11.012;2022-08-21T02:30:26;984.011;;;23.65;89.0
13058;BME280;6595;49.578;11.012;2022-08-21T02:32:24;984.028;;;23.66;89.0
13058;BME280;6595;49.578;11.012;2022-08-21T02:34:24;984.003;;;23.20;88.9
13058;BME280;6595;49.578;11.012;2022-08-21T02:36:23;984.006;;;23.17;88.9
13058;BME280;6595;49.578;11.012;2022-08-21T02:38:26;983.985;;;23.28;88.9
13058;BME280;6595;49.578;11.012;2022-08-21T02:40:27;984.006;;;23.27;88.9
13058;BME280;6595;49.578;11.012;2022-08-21T02:42:24;984.021;;;23.06;88.9
13058;BME280;6595;49.578;11.012;2022-08-21T02:44:25;984.018;;;22.81;88.9
13058;BME280;6595;49.578;11.012;2022-08-21T02:46:24;984.092;;;22.74;88.9
13058;BME280;6595;49.578;11.012;2022-08-21T02:48:30;984.097;;;22.96;88.9
13058;BME280;6595;49.578;11.012;2022-08-21T02:50:29;984.015;;;23.24;88.9
13058;BME280;6595;49.578;11.012;2022-08-21T02:52:24;984.032;;;23.43;88.9
13058;BME280;6595;49.578;11.012;2022-08-21T02:54:24;984.031;;;23.41;88.9
13058;BME280;6595;49.578;11.012;2022-08-21T02:56:23;984.061;;;22.78;88.9
13058;BME280;6595;49.578;11.012;2022-08-21T02:58:26;984.075;;;22.58;88.8
13058;BME280;6595;49.578;11.012;2022-08-21T03:00:26;984.060;;;22.88;88.9
13058;BME280;6595;49.578;11.012;2022-08-21T03:02:23;984.094;;;22.32;88.8
13058;BME280;6595;49.578;11.012;2022-08-21T03:04:24;984.101;;;21.88;88.8
13058;BME280;6595;49.578;11.012;2022-08-21T03:06:24;984.058;;;21.85;88.8
13058;BME280;6595;49.578;11.012;2022-08-21T03:08:24;983.999;;;22.61;88.8
13058;BME280;6595;49.578;11.012;2022-08-21T03:10:25;983.970;;;22.52;88.8
13058;BME280;6595;49.578;11.012;2022-08-21T03:12:24;983.970;;;22.06;88.8
13058;BME280;6595;49.578;11.012;2022-08-21T03:14:23;983.980;;;22.22;88.8
13058;BME280;6595;49.578;11.012;2022-08-21T03:16:24;983.999;;;22.16;88.8
13058;BME280;6595;49.578;11.012;2022-08-21T03:18:24;984.018;;;22.43;88.8
13058;BME280;6595;49.578;11.012;2022-08-21T03:20:26;984.024;;;22.36;88.8
13058;BME280;6595;49.578;11.012;2022-08-21T03:22:24;984.012;;;22.49;88.8
13058;BME280;6595;49.578;11.012;2022-08-21T03:24:24;984.038;;;22.67;88.9
13058;BME280;6595;49.578;11.012;2022-08-21T03:26:24;984.050;;;22.79;88.9
13058;BME280;6595;49.578;11.012;2022-08-21T03:28:24;984.101;;;21.97;88.8
13058;BME280;6595;49.578;11.012;2022-08-21T03:30:24;984.127;;;22.49;88.8
13058;BME280;6595;49.578;11.012;2022-08-21T03:32:24;984.096;;;22.48;88.8
13058;BME280;6595;49.578;11.012;2022-08-21T03:34:24;984.102;;;22.67;88.9
13058;BME280;6595;49.578;11.012;2022-08-21T03:36:24;984.111;;;22.84;88.9
13058;BME280;6595;49.578;11.012;2022-08-21T03:38:23;984.104;;;22.63;88.8
13058;BME280;6595;49.578;11.012;2022-08-21T03:40:24;984.156;;;22.44;88.8
13058;BME280;6595;49.578;11.012;2022-08-21T03:42:23;984.117;;;22.58;88.8
13058;BME280;6595;49.578;11.012;2022-08-21T03:44:23;984.147;;;22.68;88.9
13058;BME280;6595;49.578;11.012;2022-08-21T03:46:24;984.145;;;22.90;88.9
13058;BME280;6595;49.578;11.012;2022-08-21T03:48:23;984.192;;;22.90;88.9
13058;BME280;6595;49.578;11.012;2022-08-21T03:50:25;984.203;;;22.95;88.9
13058;BME280;6595;49.578;11.012;2022-08-21T03:52:23;984.169;;;23.00;88.9
13058;BME280;6595;49.578;11.012;2022-08-21T03:54:24;984.197;;;22.85;88.9
13058;BME280;6595;49.578;11.012;2022-08-21T03:56:24;984.178;;;22.45;88.8
13058;BME280;6595;49.578;11.012;2022-08-21T03:58:27;984.226;;;22.41;88.8
13058;BME280;6595;49.578;11.012;2022-08-21T04:00:24;984.251;;;22.48;88.8
13058;BME280;6595;49.578;11.012;2022-08-21T04:02:23;984.227;;;22.39;88.8
13058;BME280;6595;49.578;11.012;2022-08-21T04:04:25;984.244;;;22.26;88.8
13058;BME280;6595;49.578;11.012;2022-08-21T04:06:26;984.156;;;22.50;88.8
13058;BME280;6595;49.578;11.012;2022-08-21T04:08:24;984.114;;;22.91;88.9
13058;BME280;6595;49.578;11.012;2022-08-21T04:10:25;984.163;;;22.90;88.9
13058;BME280;6595;49.578;11.012;2022-08-21T04:12:24;984.188;;;22.87;88.9
13058;BME280;6595;49.578;11.012;2022-08-21T04:14:24;984.205;;;22.49;88.8
13058;BME280;6595;49.578;11.012;2022-08-21T04:16:23;984.245;;;22.37;88.8
13058;BME280;6595;49.578;11.012;2022-08-21T04:18:23;984.243;;;22.65;88.8
13058;BME280;6595;49.578;11.012;2022-08-21T04:20:25;984.236;;;22.87;88.9
13058;BME280;6595;49.578;11.012;2022-08-21T04:22:23;984.228;;;22.69;88.9
13058;BME280;6595;49.578;11.012;2022-08-21T04:24:23;984.232;;;22.66;88.8
13058;BME280;6595;49.578;11.012;2022-08-21T04:26:25;984.266;;;22.77;88.9
13058;BME280;6595;49.578;11.012;2022-08-21T04:28:25;984.290;;;22.33;88.8
13058;BME280;6595;49.578;11.012;2022-08-21T04:30:25;984.318;;;22.52;88.8
13058;BME280;6595;49.578;11.012;2022-08-21T04:32:24;984.298;;;21.98;88.8
13058;BME280;6595;49.578;11.012;2022-08-21T04:34:24;984.329;;;22.12;88.8
13058;BME280;6595;49.578;11.012;2022-08-21T04:36:24;984.351;;;22.41;88.8
13058;BME280;6595;49.578;11.012;2022-08-21T04:38:24;984.381;;;22.48;88.8
13058;BME280;6595;49.578;11.012;2022-08-21T04:40:25;984.439;;;22.34;88.8
13058;BME280;6595;49.578;11.012;2022-08-21T04:42:24;984.456;;;22.39;88.8
13058;BME280;6595;49.578;11.012;2022-08-21T04:44:24;984.492;;;21.63;88.7
13058;BME280;6595;49.578;11.012;2022-08-21T04:46:23;984.532;;;21.77;88.8
13058;BME280;6595;49.578;11.012;2022-08-21T04:48:24;984.546;;;21.96;88.8
13058;BME280;6595;49.578;11.012;2022-08-21T04:50:28;984.546;;;21.96;88.8
13058;BME280;6595;49.578;11.012;2022-08-21T04:52:24;984.576;;;21.79;88.8
13058;BME280;6595;49.578;11.012;2022-08-21T04:54:23;984.613;;;21.94;88.8
13058;BME280;6595;49.578;11.012;2022-08-21T04:56:27;984.589;;;22.11;88.8
13058;BME280;6595;49.578;11.012;2022-08-21T04:58:26;984.593;;;21.77;88.8
13058;BME280;6595;49.578;11.012;2022-08-21T05:00:24;984.576;;;22.02;88.8
13058;BME280;6595;49.578;11.012;2022-08-21T05:02:24;984.597;;;22.44;88.8
13058;BME280;6595;49.578;11.012;2022-08-21T05:04:28;984.633;;;22.09;88.8
13058;BME280;6595;49.578;11.012;2022-08-21T05:06:24;984.656;;;22.09;88.8
13058;BME280;6595;49.578;11.012;2022-08-21T05:08:25;984.671;;;22.10;88.8
13058;BME280;6595;49.578;11.012;2022-08-21T05:10:23;984.699;;;21.72;88.7
13058;BME280;6595;49.578;11.012;2022-08-21T05:12:25;984.743;;;22.05;88.8
13058;BME280;6595;49.578;11.012;2022-08-21T05:14:23;984.736;;;22.35;88.8
13058;BME280;6595;49.578;11.012;2022-08-21T05:16:24;984.790;;;22.13;88.8
13058;BME280;6595;49.578;11.012;2022-08-21T05:18:24;984.804;;;21.91;88.8
13058;BME280;6595;49.578;11.012;2022-08-21T05:20:24;984.768;;;22.43;88.8
13058;BME280;6595;49.578;11.012;2022-08-21T05:22:24;984.749;;;22.63;88.8
13058;BME280;6595;49.578;11.012;2022-08-21T05:24:24;984.787;;;22.75;88.9
13058;BME280;6595;49.578;11.012;2022-08-21T05:26:24;984.778;;;22.66;88.8
13058;BME280;6595;49.578;11.012;2022-08-21T05:28:25;984.767;;;21.85;88.8
13058;BME280;6595;49.578;11.012;2022-08-21T05:30:24;984.760;;;22.15;88.8
13058;BME280;6595;49.578;11.012;2022-08-21T05:32:24;984.782;;;22.58;88.8
13058;BME280;6595;49.578;11.012;2022-08-21T05:34:24;984.782;;;22.47;88.8
13058;BME280;6595;49.578;11.012;2022-08-21T05:36:24;984.781;;;22.66;88.8
13058;BME280;6595;49.578;11.012;2022-08-21T05:38:27;984.817;;;22.93;88.9
13058;BME280;6595;49.578;11.012;2022-08-21T05:40:24;984.818;;;22.77;88.9
13058;BME280;6595;49.578;11.012;2022-08-21T05:42:23;984.780;;;23.13;88.9
13058;BME280;6595;49.578;11.012;2022-08-21T05:44:24;984.749;;;23.19;88.9
13058;BME280;6595;49.578;11.012;2022-08-21T05:46:23;984.750;;;23.39;88.9
13058;BME280;6595;49.578;11.012;2022-08-21T05:48:24;984.733;;;23.35;88.9
13058;BME280;6595;49.578;11.012;2022-08-21T05:50:24;984.794;;;23.36;88.9
13058;BME280;6595;49.578;11.012;2022-08-21T05:52:24;984.779;;;23.12;88.9
13058;BME280;6595;49.578;11.012;2022-08-21T05:54:24;984.818;;;23.16;88.9
13058;BME280;6595;49.578;11.012;2022-08-21T05:56:24;984.806;;;23.38;88.9
13058;BME280;6595;49.578;11.012;2022-08-21T05:58:24;984.782;;;23.61;89.0
13058;BME280;6595;49.578;11.012;2022-08-21T06:00:24;984.782;;;23.61;89.0
13058;BME280;6595;49.578;11.012;2022-08-21T06:02:23;984.802;;;23.29;88.9
13058;BME280;6595;49.578;11.012;2022-08-21T06:04:24;984.848;;;23.01;88.9
13058;BME280;6595;49.578;11.012;2022-08-21T06:06:24;984.922;;;22.93;88.9
13058;BME280;6595;49.578;11.012;2022-08-21T06:08:25;984.945;;;22.84;88.9
13058;BME280;6595;49.578;11.012;2022-08-21T06:10:24;984.932;;;23.48;88.9
13058;BME280;6595;49.578;11.012;2022-08-21T06:12:25;984.906;;;23.76;89.0
13058;BME280;6595;49.578;11.012;2022-08-21T06:14:24;984.931;;;23.26;88.9
13058;BME280;6595;49.578;11.012;2022-08-21T06:16:25;984.965;;;23.75;89.0
13058;BME280;6595;49.578;11.012;2022-08-21T06:18:24;984.959;;;23.67;89.0
13058;BME280;6595;49.578;11.012;2022-08-21T06:20:25;984.953;;;23.28;88.9
13058;BME280;6595;49.578;11.012;2022-08-21T06:22:24;984.954;;;23.49;88.9
13058;BME280;6595;49.578;11.012;2022-08-21T06:24:25;984.942;;;23.75;89.0
13058;BME280;6595;49.578;11.012;2022-08-21T06:26:23;984.948;;;23.78;89.0
13058;BME280;6595;49.578;11.012;2022-08-21T06:28:23;984.953;;;23.94;89.0
13058;BME280;6595;49.578;11.012;2022-08-21T06:30:24;984.978;;;24.01;89.0
13058;BME280;6595;49.578;11.012;2022-08-21T06:32:24;984.947;;;24.02;89.0
13058;BME280;6595;49.578;11.012;2022-08-21T06:34:23;984.959;;;23.91;89.0
13058;BME280;6595;49.578;11.012;2022-08-21T06:36:24;985.005;;;23.57;88.9
13058;BME280;6595;49.578;11.012;2022-08-21T06:38:23;985.041;;;23.54;88.9
13058;BME280;6595;49.578;11.012;2022-08-21T06:40:24;985.017;;;23.67;89.0
13058;BME280;6595;49.578;11.012;2022-08-21T06:42:24;985.055;;;23.65;89.0
13058;BME280;6595;49.578;11.012;2022-08-21T06:44:24;985.101;;;23.54;88.9
13058;BME280;6595;49.578;11.012;2022-08-21T06:46:25;985.062;;;23.68;89.0
13058;BME280;6595;49.578;11.012;2022-08-21T06:48:23;985.076;;;24.08;89.0
13058;BME280;6595;49.578;11.012;2022-08-21T06:50:24;985.088;;;23.88;89.0
13058;BME280;6595;49.578;11.012;2022-08-21T06:52:24;985.117;;;23.53;88.9
13058;BME280;6595;49.578;11.012;2022-08-21T06:54:24;985.117;;;23.53;88.9
13058;BME280;6595;49.578;11.012;2022-08-21T06:56:24;985.136;;;24.30;89.0
13058;BME280;6595;49.578;11.012;2022-08-21T06:58:24;985.093;;;24.11;89.0
13058;BME280;6595;49.578;11.012;2022-08-21T07:00:24;985.092;;;24.40;89.0
13058;BME280;6595;49.578;11.012;2022-08-21T07:02:24;985.101;;;24.55;89.0
13058;BME280;6595;49.578;11.012;2022-08-21T07:04:24;985.105;;;24.60;89.1
13058;BME280;6595;49.578;11.012;2022-08-21T07:06:24;985.070;;;24.11;89.0
13058;BME280;6595;49.578;11.012;2022-08-21T07:08:25;985.108;;;23.64;89.0
13058;BME280;6595;49.578;11.012;2022-08-21T07:10:24;985.109;;;23.67;89.0
13058;BME280;6595;49.578;11.012;2022-08-21T07:12:23;985.101;;;23.40;88.9
13058;BME280;6595;49.578;11.012;2022-08-21T07:14:24;985.101;;;23.38;88.9
13058;BME280;6595;49.578;11.012;2022-08-21T07:16:24;985.134;;;23.67;89.0
13058;BME280;6595;49.578;11.012;2022-08-21T07:18:24;985.108;;;24.10;89.0
13058;BME280;6595;49.578;11.012;2022-08-21T07:20:24;985.109;;;24.21;89.0
13058;BME280;6595;49.578;11.012;2022-08-21T07:22:24;985.083;;;24.01;89.0
13058;BME280;6595;49.578;11.012;2022-08-21T07:24:24;985.095;;;24.24;89.0
13058;BME280;6595;49.578;11.012;2022-08-21T07:26:24;985.157;;;24.48;89.0
13058;BME280;6595;49.578;11.012;2022-08-21T07:28:24;985.141;;;24.33;89.0
13058;BME280;6595;49.578;11.012;2022-08-21T07:30:24;985.175;;;24.66;89.1
13058;BME280;6595;49.578;11.012;2022-08-21T07:32:23;985.166;;;24.37;89.0
13058;BME280;6595;49.578;11.012;2022-08-21T07:34:24;985.165;;;24.60;89.1
13058;BME280;6595;49.578;11.012;2022-08-21T07:36:24;985.165;;;24.60;89.1
13058;BME280;6595;49.578;11.012;2022-08-21T07:38:24;985.156;;;24.02;89.0
13058;BME280;6595;49.578;11.012;2022-08-21T07:40:24;985.172;;;23.77;89.0
13058;BME280;6595;49.578;11.012;2022-08-21T07:42:24;985.150;;;24.01;89.0
13058;BME280;6595;49.578;11.012;2022-08-21T07:44:24;985.098;;;23.91;89.0
13058;BME280;6595;49.578;11.012;2022-08-21T07:46:24;985.144;;;23.05;88.9
13058;BME280;6595;49.578;11.012;2022-08-21T07:48:24;985.144;;;23.05;88.9
13058;BME280;6595;49.578;11.012;2022-08-21T07:50:25;985.088;;;24.13;89.0
13058;BME280;6595;49.578;11.012;2022-08-21T07:52:24;985.064;;;24.18;89.0
13058;BME280;6595;49.578;11.012;2022-08-21T07:54:24;985.088;;;23.47;88.9
13058;BME280;6595;49.578;11.012;2022-08-21T07:56:25;985.088;;;23.47;88.9
13058;BME280;6595;49.578;11.012;2022-08-21T07:58:24;985.064;;;24.53;89.1
13058;BME280;6595;49.578;11.012;2022-08-21T08:00:25;985.054;;;24.70;89.1
13058;BME280;6595;49.578;11.012;2022-08-21T08:02:25;985.028;;;23.64;89.0
13058;BME280;6595;49.578;11.012;2022-08-21T08:04:25;985.075;;;24.53;89.1
13058;BME280;6595;49.578;11.012;2022-08-21T08:06:25;985.056;;;24.13;89.0
13058;BME280;6595;49.578;11.012;2022-08-21T08:08:24;985.051;;;24.54;89.0
13058;BME280;6595;49.578;11.012;2022-08-21T08:10:24;985.076;;;24.57;89.1
13058;BME280;6595;49.578;11.012;2022-08-21T08:12:29;985.081;;;24.43;89.0
13058;BME280;6595;49.578;11.012;2022-08-21T08:14:23;985.095;;;24.93;89.1
13058;BME280;6595;49.578;11.012;2022-08-21T08:16:24;985.054;;;24.66;89.1
13058;BME280;6595;49.578;11.012;2022-08-21T08:18:24;985.046;;;24.51;89.1
13058;BME280;6595;49.578;11.012;2022-08-21T08:20:26;985.020;;;25.10;89.1
13058;BME280;6595;49.578;11.012;2022-08-21T08:22:24;985.025;;;24.98;89.1
13058;BME280;6595;49.578;11.012;2022-08-21T08:24:24;984.993;;;24.65;89.1
13058;BME280;6595;49.578;11.012;2022-08-21T08:26:24;985.008;;;24.43;89.0
13058;BME280;6595;49.578;11.012;2022-08-21T08:28:24;984.984;;;24.95;89.1
13058;BME280;6595;49.578;11.012;2022-08-21T08:30:24;984.988;;;25.12;89.1
13058;BME280;6595;49.578;11.012;2022-08-21T08:32:24;984.946;;;25.06;89.1
13058;BME280;6595;49.578;11.012;2022-08-21T08:34:24;984.924;;;24.73;89.1
13058;BME280;6595;49.578;11.012;2022-08-21T08:36:32;984.932;;;24.96;89.1
13058;BME280;6595;49.578;11.012;2022-08-21T08:38:25;984.892;;;25.41;89.1
13058;BME280;6595;49.578;11.012;2022-08-21T08:40:32;984.846;;;25.60;89.2
13058;BME280;6595;49.578;11.012;2022-08-21T08:42:27;984.832;;;25.56;89.2
13058;BME280;6595;49.578;11.012;2022-08-21T08:44:24;984.812;;;26.24;89.2
13058;BME280;6595;49.578;11.012;2022-08-21T08:46:31;984.875;;;25.22;89.1
13058;BME280;6595;49.578;11.012;2022-08-21T08:48:36;984.878;;;25.20;89.1
13058;BME280;6595;49.578;11.012;2022-08-21T08:50:27;984.927;;;25.03;89.1
13058;BME280;6595;49.578;11.012;2022-08-21T08:52:29;984.867;;;25.51;89.2
13058;BME280;6595;49.578;11.012;2022-08-21T08:54:28;984.924;;;24.23;89.0
13058;BME280;6595;49.578;11.012;2022-08-21T08:56:29;984.915;;;25.27;89.1
13058;BME280;6595;49.578;11.012;2022-08-21T08:58:27;984.893;;;25.22;89.1
13058;BME280;6595;49.578;11.012;2022-08-21T09:00:24;984.921;;;25.71;89.2
13058;BME280;6595;49.578;11.012;2022-08-21T09:02:24;984.902;;;25.88;89.2
13058;BME280;6595;49.578;11.012;2022-08-21T09:04:26;984.956;;;25.43;89.2
13058;BME280;6595;49.578;11.012;2022-08-21T09:06:34;984.916;;;26.10;89.2
13058;BME280;6595;49.578;11.012;2022-08-21T09:08:32;984.916;;;26.10;89.2
13058;BME280;6595;49.578;11.012;2022-08-21T09:10:34;984.935;;;26.30;89.2
13058;BME280;6595;49.578;11.012;2022-08-21T09:12:33;984.910;;;26.60;89.3
13058;BME280;6595;49.578;11.012;2022-08-21T09:14:29;984.903;;;26.83;89.3
13058;BME280;6595;49.578;11.012;2022-08-21T09:16:33;984.883;;;26.91;89.3
13058;BME280;6595;49.578;11.012;2022-08-21T09:18:33;984.835;;;26.47;89.2
13058;BME280;6595;49.578;11.012;2022-08-21T09:20:31;984.808;;;26.56;89.3
13058;BME280;6595;49.578;11.012;2022-08-21T09:22:30;984.844;;;26.51;89.3
13058;BME280;6595;49.578;11.012;2022-08-21T09:24:31;984.821;;;27.10;89.3
13058;BME280;6595;49.578;11.012;2022-08-21T09:26:27;984.850;;;26.99;89.3
13058;BME280;6595;49.578;11.012;2022-08-21T09:28:24;984.809;;;26.53;89.3
13058;BME280;6595;49.578;11.012;2022-08-21T09:30:31;984.821;;;27.37;89.3
13058;BME280;6595;49.578;11.012;2022-08-21T09:32:27;984.808;;;27.28;89.3
13058;BME280;6595;49.578;11.012;2022-08-21T09:34:25;984.782;;;27.51;89.4
13058;BME280;6595;49.578;11.012;2022-08-21T09:36:28;984.770;;;27.34;89.4
13058;BME280;6595;49.578;11.012;2022-08-21T09:38:27;984.739;;;27.99;89.4
13058;BME280;6595;49.578;11.012;2022-08-21T09:40:32;984.735;;;28.26;89.4
13058;BME280;6595;49.578;11.012;2022-08-21T09:42:26;984.776;;;28.54;89.5
13058;BME280;6595;49.578;11.012;2022-08-21T09:44:26;984.746;;;28.59;89.5
13058;BME280;6595;49.578;11.012;2022-08-21T09:46:25;984.732;;;28.58;89.5
13058;BME280;6595;49.578;11.012;2022-08-21T09:48:25;984.711;;;28.72;89.5
13058;BME280;6595;49.578;11.012;2022-08-21T09:50:27;984.737;;;28.91;89.5
13058;BME280;6595;49.578;11.012;2022-08-21T09:52:25;984.710;;;28.66;89.5
13058;BME280;6595;49.578;11.012;2022-08-21T09:54:29;984.717;;;28.78;89.5
13058;BME280;6595;49.578;11.012;2022-08-21T09:56:51;984.698;;;28.54;89.5
13058;BME280;6595;49.578;11.012;2022-08-21T09:58:32;984.687;;;28.74;89.5
13058;BME280;6595;49.578;11.012;2022-08-21T10:00:26;984.688;;;29.07;89.5
13058;BME280;6595;49.578;11.012;2022-08-21T10:02:27;984.692;;;29.23;89.5
13058;BME280;6595;49.578;11.012;2022-08-21T10:04:29;984.692;;;29.23;89.5
13058;BME280;6595;49.578;11.012;2022-08-21T10:06:27;984.692;;;29.01;89.5
13058;BME280;6595;49.578;11.012;2022-08-21T10:08:26;984.654;;;28.65;89.5
13058;BME280;6595;49.578;11.012;2022-08-21T10:10:28;984.643;;;28.83;89.5
13058;BME280;6595;49.578;11.012;2022-08-21T10:12:30;984.637;;;29.14;89.5
13058;BME280;6595;49.578;11.012;2022-08-21T10:14:38;984.637;;;29.14;89.5
13058;BME280;6595;49.578;11.012;2022-08-21T10:16:32;984.610;;;29.22;89.5
13058;BME280;6595;49.578;11.012;2022-08-21T10:18:27;984.529;;;30.06;89.6
13058;BME280;6595;49.578;11.012;2022-08-21T10:20:27;984.552;;;29.30;89.5
13058;BME280;6595;49.578;11.012;2022-08-21T10:22:36;984.485;;;29.86;89.6
13058;BME280;6595;49.578;11.012;2022-08-21T10:24:29;984.521;;;30.14;89.6
13058;BME280;6595;49.578;11.012;2022-08-21T10:26:32;984.528;;;29.94;89.6
13058;BME280;6595;49.578;11.012;2022-08-21T10:28:29;984.532;;;29.94;89.6
13058;BME280;6595;49.578;11.012;2022-08-21T10:30:33;984.560;;;30.11;89.6
13058;BME280;6595;49.578;11.012;2022-08-21T10:32:38;984.574;;;29.62;89.6
13058;BME280;6595;49.578;11.012;2022-08-21T10:34:35;984.602;;;29.14;89.5
13058;BME280;6595;49.578;11.012;2022-08-21T10:36:29;984.579;;;29.16;89.5
13058;BME280;6595;49.578;11.012;2022-08-21T10:40:27;984.581;;;29.51;89.6
13058;BME280;6595;49.578;11.012;2022-08-21T10:42:30;984.454;;;29.93;89.6
13058;BME280;6595;49.578;11.012;2022-08-21T10:44:30;984.479;;;29.40;89.6
13058;BME280;6595;49.578;11.012;2022-08-21T10:46:34;984.420;;;29.97;89.6
13058;BME280;6595;49.578;11.012;2022-08-21T10:48:28;984.449;;;29.80;89.6
13058;BME280;6595;49.578;11.012;2022-08-21T10:50:30;984.405;;;29.91;89.6
13058;BME280;6595;49.578;11.012;2022-08-21T10:52:41;984.380;;;30.32;89.7
13058;BME280;6595;49.578;11.012;2022-08-21T10:54:32;984.397;;;30.51;89.7